Time;durP1;ratioP1;P1;durP2;ratioP2;P2;SDS_P1;SDS_P2;PMS_P1;PMS_P2;Temp;Humidity;BMP_temperature;BMP_pressure;BME280_temperature;BME280_humidity;BME280_pressure;Samples;Min_cycle;Max_cycle;Signal;HPM_P1;HPM_P2
2023/04/17 00:02:25;;;;;;;6.97;5.50;;;8.30;99.90;;;;;;5022420;28;20230;-85
2023/04/17 00:04:51;;;;;;;5.07;4.07;;;8.30;99.90;;;;;;5036882;28;20246;-85
2023/04/17 00:07:21;;;;;;;11.50;6.13;;;8.30;99.90;;;;;;5004938;28;20628;-86
2023/04/17 00:09:50;;;;;;;6.10;5.40;;;8.30;99.90;;;;;;5023207;28;20226;-85
2023/04/17 00:12:16;;;;;;;6.67;4.87;;;8.30;99.90;;;;;;5023031;28;20191;-85
2023/04/17 00:14:41;;;;;;;10.83;6.87;;;8.30;99.90;;;;;;5021816;28;20221;-85
2023/04/17 00:17:07;;;;;;;6.47;5.87;;;8.30;99.90;;;;;;5021977;28;20804;-85
2023/04/17 00:19:33;;;;;;;5.13;4.67;;;8.30;99.90;;;;;;5038424;28;20794;-85
2023/04/17 00:21:59;;;;;;;7.13;5.20;;;8.30;99.90;;;;;;5022207;28;20205;-84
2023/04/17 00:24:24;;;;;;;5.37;4.63;;;8.30;99.90;;;;;;5039578;28;20551;-85
2023/04/17 00:26:50;;;;;;;6.20;3.93;;;8.20;99.90;;;;;;5038171;28;20614;-84
2023/04/17 00:29:19;;;;;;;6.53;5.27;;;8.20;99.90;;;;;;5022412;28;20285;-86
2023/04/17 00:31:45;;;;;;;6.47;4.43;;;8.20;99.90;;;;;;5021663;28;20301;-85
2023/04/17 00:34:10;;;;;;;4.87;3.20;;;8.30;99.90;;;;;;5022023;28;20232;-85
2023/04/17 00:36:36;;;;;;;9.53;4.37;;;8.30;99.90;;;;;;5038613;28;20316;-85
2023/04/17 00:39:02;;;;;;;6.60;5.93;;;8.30;99.90;;;;;;5038501;28;20218;-85
2023/04/17 00:41:27;;;;;;;7.00;5.70;;;8.30;99.90;;;;;;5022030;28;20232;-86
2023/04/17 00:43:53;;;;;;;5.47;4.60;;;8.30;99.90;;;;;;5038234;28;20310;-85
2023/04/17 00:46:19;;;;;;;8.57;5.60;;;8.30;99.90;;;;;;5037812;28;20679;-85
2023/04/17 00:48:45;;;;;;;5.20;4.30;;;8.30;99.90;;;;;;5013967;28;20218;-85
2023/04/17 00:51:11;;;;;;;9.27;5.43;;;8.30;99.90;;;;;;5022287;28;20220;-85
2023/04/17 00:53:37;;;;;;;11.67;5.50;;;8.30;99.90;;;;;;5037346;28;20586;-85
2023/04/17 00:56:04;;;;;;;6.53;4.77;;;8.30;99.90;;;;;;5038026;28;20233;-84
2023/04/17 00:58:31;;;;;;;9.93;5.10;;;8.20;99.90;;;;;;5022289;28;20225;-86
2023/04/17 01:00:57;;;;;;;7.37;5.00;;;8.20;99.90;;;;;;5013984;28;20557;-85
2023/04/17 01:03:22;;;;;;;7.80;4.50;;;8.20;99.90;;;;;;5022211;28;20191;-85
2023/04/17 01:05:51;;;;;;;7.37;4.20;;;8.20;99.90;;;;;;5037544;28;20230;-85
2023/04/17 01:08:18;;;;;;;9.47;4.20;;;8.30;99.90;;;;;;5037782;28;20264;-85
2023/04/17 01:10:44;;;;;;;4.73;3.90;;;8.30;99.90;;;;;;5022256;28;20226;-85
2023/04/17 01:13:09;;;;;;;10.00;3.80;;;8.20;99.90;;;;;;5023237;28;21147;-85
2023/04/17 01:15:35;;;;;;;6.53;3.90;;;8.20;99.90;;;;;;5023388;28;20190;-85
2023/04/17 01:18:02;;;;;;;6.90;3.70;;;8.20;99.90;;;;;;5022747;28;20210;-86
2023/04/17 01:20:31;;;;;;;9.63;4.90;;;8.20;99.90;;;;;;5022764;28;20233;-86
2023/04/17 01:22:57;;;;;;;9.30;4.73;;;8.20;99.90;;;;;;5022315;28;20250;-85
2023/04/17 01:25:24;;;;;;;8.20;5.10;;;8.20;99.90;;;;;;5020807;28;20222;-84
2023/04/17 01:27:50;;;;;;;6.20;4.23;;;8.20;99.90;;;;;;5021378;28;20194;-86
2023/04/17 01:30:16;;;;;;;10.07;5.03;;;8.10;99.90;;;;;;5037788;28;20276;-85
2023/04/17 01:32:41;;;;;;;5.90;3.53;;;8.20;99.90;;;;;;5022648;28;20305;-86
2023/04/17 01:35:08;;;;;;;8.27;4.63;;;8.20;99.90;;;;;;5022339;28;20257;-85
2023/04/17 01:37:34;;;;;;;7.40;3.87;;;8.20;99.90;;;;;;5022124;28;20218;-84
2023/04/17 01:39:59;;;;;;;8.40;5.17;;;8.20;99.90;;;;;;5020419;28;20190;-85
2023/04/17 01:42:25;;;;;;;5.10;4.60;;;8.20;99.90;;;;;;5021718;28;20277;-85
2023/04/17 01:44:51;;;;;;;4.90;3.43;;;8.20;99.90;;;;;;5022396;28;20218;-85
2023/04/17 01:47:17;;;;;;;7.63;4.60;;;8.20;99.90;;;;;;5024293;28;20218;-86
2023/04/17 01:49:42;;;;;;;6.97;4.10;;;8.20;99.90;;;;;;5023738;28;21012;-85
2023/04/17 01:52:08;;;;;;;7.40;5.03;;;8.20;99.90;;;;;;5025776;28;20233;-86
2023/04/17 01:54:34;;;;;;;6.50;4.40;;;8.20;99.90;;;;;;5024703;28;20193;-85
2023/04/17 01:57:01;;;;;;;6.57;4.17;;;8.10;99.90;;;;;;5023906;28;20308;-86
2023/04/17 01:59:26;;;;;;;3.10;2.80;;;8.00;99.90;;;;;;5025908;28;20800;-85
2023/04/17 02:01:53;;;;;;;4.07;3.73;;;7.90;99.90;;;;;;5041001;28;20222;-85
2023/04/17 02:04:19;;;;;;;4.20;2.97;;;7.90;99.90;;;;;;5023654;28;20683;-85
2023/04/17 02:06:45;;;;;;;3.97;3.60;;;7.90;99.90;;;;;;5024204;28;20224;-86
2023/04/17 02:09:10;;;;;;;5.33;3.47;;;8.00;99.90;;;;;;5024805;28;20889;-86
2023/04/17 02:11:36;;;;;;;6.57;3.87;;;7.90;99.90;;;;;;5040209;28;20227;-85
2023/04/17 02:14:02;;;;;;;5.20;3.93;;;7.90;99.90;;;;;;5024022;28;20317;-85
2023/04/17 02:16:28;;;;;;;5.07;4.53;;;7.90;99.90;;;;;;5026086;28;20241;-84
2023/04/17 02:18:54;;;;;;;6.63;4.77;;;7.90;99.90;;;;;;5025165;28;20565;-85
2023/04/17 02:21:20;;;;;;;9.40;3.73;;;7.90;99.90;;;;;;5025270;28;20224;-85
2023/04/17 02:23:46;;;;;;;5.13;4.43;;;7.90;99.90;;;;;;5024943;28;20229;-85
2023/04/17 02:26:12;;;;;;;5.53;3.93;;;7.80;99.90;;;;;;5024327;28;20974;-85
2023/04/17 02:28:38;;;;;;;4.30;3.60;;;7.70;99.90;;;;;;5041106;28;20704;-85
2023/04/17 02:31:07;;;;;;;7.03;4.10;;;7.60;99.90;;;;;;5024554;28;20238;-85
2023/04/17 02:33:35;;;;;;;6.13;4.30;;;7.60;99.90;;;;;;5025546;28;20187;-86
2023/04/17 02:36:01;;;;;;;7.70;4.60;;;7.70;99.90;;;;;;5024133;28;20210;-85
2023/04/17 02:38:29;;;;;;;7.47;4.10;;;7.80;99.90;;;;;;5023844;28;20272;-85
2023/04/17 02:40:58;;;;;;;5.47;2.33;;;7.70;99.90;;;;;;5023298;28;20260;-85
2023/04/17 02:43:24;;;;;;;7.23;5.20;;;7.80;99.90;;;;;;5023391;28;20958;-85
2023/04/17 02:45:50;;;;;;;8.67;3.77;;;7.80;99.90;;;;;;5023710;28;20191;-85
2023/04/17 02:48:16;;;;;;;6.73;3.93;;;7.70;99.90;;;;;;5025878;28;20189;-86
2023/04/17 02:50:42;;;;;;;7.87;4.40;;;7.60;99.90;;;;;;5024183;28;20321;-86
2023/04/17 02:53:08;;;;;;;7.37;5.87;;;7.70;99.90;;;;;;5023708;28;20236;-86
2023/04/17 02:55:34;;;;;;;5.17;4.13;;;7.70;99.90;;;;;;5024689;28;20215;-85
2023/04/17 02:58:00;;;;;;;29.90;4.13;;;7.60;99.90;;;;;;5022070;28;20199;-86
2023/04/17 03:00:27;;;;;;;3.67;3.30;;;7.60;99.90;;;;;;5024502;28;20194;-86
2023/04/17 03:02:53;;;;;;;6.87;4.70;;;7.60;99.90;;;;;;5023471;28;20700;-86
2023/04/17 03:05:22;;;;;;;6.63;4.50;;;7.60;99.90;;;;;;5040070;28;20285;-85
2023/04/17 03:07:51;;;;;;;5.53;4.63;;;7.50;99.90;;;;;;5025467;28;20226;-83
2023/04/17 03:10:17;;;;;;;16.07;6.03;;;7.50;99.90;;;;;;5023606;28;20246;-86
2023/04/17 03:12:43;;;;;;;6.23;3.77;;;7.50;99.90;;;;;;5023716;28;20191;-85
2023/04/17 03:15:09;;;;;;;7.07;4.50;;;7.50;99.90;;;;;;5024400;28;20194;-86
2023/04/17 03:17:35;;;;;;;7.63;4.63;;;7.60;99.90;;;;;;5039701;28;20222;-85
2023/04/17 03:20:01;;;;;;;4.80;3.37;;;7.70;99.90;;;;;;5024894;28;20233;-86
2023/04/17 03:22:26;;;;;;;7.80;4.77;;;7.80;99.90;;;;;;5022817;28;20214;-86
2023/04/17 03:24:52;;;;;;;7.77;4.47;;;7.70;99.90;;;;;;5041084;28;20186;-85
2023/04/17 03:27:23;;;;;;;11.60;3.77;;;7.80;99.90;;;;;;5024679;28;20186;-85
2023/04/17 03:29:55;;;;;;;3.73;3.07;;;7.80;99.90;;;;;;5024084;28;20295;-86
2023/04/17 03:32:20;;;;;;;15.40;5.77;;;7.70;99.90;;;;;;5039843;28;20230;-86
2023/04/17 03:34:46;;;;;;;6.50;4.30;;;7.70;99.90;;;;;;5023501;28;20232;-86
2023/04/17 03:37:12;;;;;;;7.17;5.37;;;7.60;99.90;;;;;;5023010;28;20584;-86
2023/04/17 03:39:37;;;;;;;7.47;5.40;;;7.60;99.90;;;;;;5040740;28;20194;-86
2023/04/17 03:42:03;;;;;;;8.17;4.77;;;7.60;99.90;;;;;;5023270;28;20623;-85
2023/04/17 03:44:29;;;;;;;49.33;7.07;;;7.70;99.90;;;;;;5040548;28;20223;-87
2023/04/17 03:46:55;;;;;;;5.20;4.03;;;7.60;99.90;;;;;;5038917;28;20218;-86
2023/04/17 03:49:21;;;;;;;3.73;2.57;;;7.60;99.90;;;;;;5022720;28;20296;-86
2023/04/17 03:51:47;;;;;;;9.10;4.23;;;7.60;99.90;;;;;;5023345;28;20193;-86
2023/04/17 03:54:12;;;;;;;14.93;4.20;;;7.60;99.90;;;;;;5023448;28;21102;-85
2023/04/17 03:56:38;;;;;;;5.30;2.97;;;7.70;99.90;;;;;;5023725;28;20226;-86
2023/04/17 03:59:04;;;;;;;5.83;4.60;;;7.70;99.90;;;;;;5023553;28;20341;-85
2023/04/17 04:01:31;;;;;;;5.47;4.53;;;7.80;99.90;;;;;;5022454;28;20218;-87
2023/04/17 04:03:58;;;;;;;9.97;5.43;;;7.80;99.90;;;;;;5024563;28;20666;-85
2023/04/17 04:06:23;;;;;;;15.10;5.67;;;7.80;99.90;;;;;;5022877;28;20195;-85
2023/04/17 04:08:49;;;;;;;6.70;4.37;;;7.70;99.90;;;;;;5022993;28;20600;-86
2023/04/17 04:11:15;;;;;;;7.77;5.07;;;7.60;99.90;;;;;;5022640;28;20218;-86
2023/04/17 04:13:41;;;;;;;7.73;4.60;;;7.60;99.90;;;;;;5022302;28;20226;-86
2023/04/17 04:16:07;;;;;;;6.97;4.73;;;7.60;99.90;;;;;;5038535;28;20225;-86
2023/04/17 04:18:34;;;;;;;5.33;4.63;;;7.70;99.90;;;;;;5023144;28;20187;-85
2023/04/17 04:21:00;;;;;;;7.97;5.00;;;7.80;99.90;;;;;;5022442;28;20622;-86
2023/04/17 04:23:26;;;;;;;8.93;4.33;;;7.80;99.90;;;;;;5038206;28;20680;-85
2023/04/17 04:25:55;;;;;;;4.27;3.87;;;7.90;99.90;;;;;;5038783;28;20223;-85
2023/04/17 04:28:23;;;;;;;30.53;4.93;;;7.90;99.90;;;;;;5021534;28;20223;-85
2023/04/17 04:30:52;;;;;;;10.60;4.83;;;7.80;99.90;;;;;;5022756;28;20257;-85
2023/04/17 04:33:21;;;;;;;6.60;3.70;;;7.80;99.90;;;;;;5022106;28;20552;-84
2023/04/17 04:35:47;;;;;;;45.93;5.83;;;7.80;99.90;;;;;;5021088;28;20665;-85
2023/04/17 04:38:14;;;;;;;6.17;3.33;;;7.70;99.90;;;;;;5020646;28;20219;-86
2023/04/17 04:40:42;;;;;;;6.73;4.70;;;7.70;99.90;;;;;;5020235;28;20214;-86
2023/04/17 04:43:09;;;;;;;9.97;5.33;;;7.70;99.90;;;;;;5019522;28;20309;-86
2023/04/17 04:45:35;;;;;;;9.07;5.13;;;7.70;99.90;;;;;;5022081;28;20194;-86
2023/04/17 04:48:01;;;;;;;6.87;5.20;;;7.60;99.90;;;;;;5036538;28;20261;-87
2023/04/17 04:50:26;;;;;;;3.83;3.33;;;7.50;99.90;;;;;;5034752;28;20748;-85
2023/04/17 04:52:52;;;;;;;6.03;4.43;;;7.50;99.90;;;;;;5020870;28;20257;-86
2023/04/17 04:55:18;;;;;;;11.37;5.67;;;7.50;99.90;;;;;;5019837;28;20223;-86
2023/04/17 04:57:44;;;;;;;6.10;5.27;;;7.60;99.90;;;;;;5035647;28;20213;-85
2023/04/17 05:00:12;;;;;;;14.40;5.33;;;7.50;99.90;;;;;;5036246;28;20549;-86
2023/04/17 05:02:37;;;;;;;9.17;5.27;;;7.50;99.90;;;;;;5022614;28;20222;-86
2023/04/17 05:05:03;;;;;;;4.93;3.53;;;7.60;99.90;;;;;;5022742;28;20222;-85
2023/04/17 05:07:29;;;;;;;5.47;3.63;;;7.60;99.90;;;;;;5021838;28;20249;-85
2023/04/17 05:09:55;;;;;;;9.57;4.83;;;7.70;99.90;;;;;;5036398;28;20313;-86
2023/04/17 05:12:21;;;;;;;9.40;4.10;;;7.80;99.90;;;;;;5021038;28;20232;-85
2023/04/17 05:14:47;;;;;;;3.73;3.43;;;7.70;99.90;;;;;;5020364;28;20218;-86
2023/04/17 05:17:12;;;;;;;20.13;5.33;;;7.60;99.90;;;;;;5035590;28;20590;-85
2023/04/17 05:19:38;;;;;;;5.60;4.73;;;7.70;99.90;;;;;;5019914;28;20770;-85
2023/04/17 05:22:04;;;;;;;7.80;5.93;;;7.70;99.90;;;;;;5020458;28;20222;-87
2023/04/17 05:24:30;;;;;;;3.67;3.37;;;7.80;99.90;;;;;;5035277;28;20266;-84
2023/04/17 05:26:55;;;;;;;10.77;4.63;;;7.70;99.90;;;;;;5018996;28;20692;-85
2023/04/17 05:29:24;;;;;;;6.90;5.50;;;7.70;99.90;;;;;;5016480;28;20250;-85
2023/04/17 05:31:51;;;;;;;3.90;3.23;;;7.70;99.90;;;;;;5019037;28;20391;-85
2023/04/17 05:34:16;;;;;;;5.80;4.27;;;7.70;99.90;;;;;;5035817;28;20354;-87
2023/04/17 05:36:42;;;;;;;6.10;4.43;;;7.70;99.90;;;;;;5019004;28;20198;-86
2023/04/17 05:39:08;;;;;;;6.57;4.10;;;7.70;99.90;;;;;;5011997;28;20782;-87
2023/04/17 05:41:33;;;;;;;20.73;4.43;;;7.60;99.90;;;;;;5037390;28;20215;-88
2023/04/17 05:44:00;;;;;;;9.43;3.97;;;7.70;99.90;;;;;;5036749;28;20238;-87
2023/04/17 05:46:25;;;;;;;8.93;4.07;;;7.80;99.90;;;;;;5020282;28;20227;-87
2023/04/17 05:48:51;;;;;;;5.90;3.80;;;7.80;99.90;;;;;;5019930;28;20730;-86
2023/04/17 05:51:17;;;;;;;6.40;3.90;;;7.80;99.90;;;;;;5003969;28;20703;-87
2023/04/17 05:53:43;;;;;;;7.73;5.33;;;7.80;99.90;;;;;;5022261;28;20863;-86
2023/04/17 05:56:10;;;;;;;7.40;6.10;;;7.80;99.90;;;;;;5036946;28;20265;-86
2023/04/17 05:58:36;;;;;;;8.17;5.77;;;7.90;99.90;;;;;;5021173;28;20218;-86
2023/04/17 06:01:04;;;;;;;11.00;6.57;;;7.90;99.90;;;;;;5036955;28;20292;-88
2023/04/17 06:03:33;;;;;;;9.50;5.40;;;7.90;99.90;;;;;;5020158;28;20202;-88
2023/04/17 06:05:59;;;;;;;8.73;5.60;;;7.90;99.90;;;;;;5021108;28;20218;-87
2023/04/17 06:08:26;;;;;;;5.77;3.73;;;7.90;99.90;;;;;;5037990;28;20221;-87
2023/04/17 06:10:54;;;;;;;4.40;3.93;;;7.90;99.90;;;;;;5022942;28;20242;-87
2023/04/17 06:13:22;;;;;;;10.63;6.03;;;8.00;99.90;;;;;;5038123;28;20240;-87
2023/04/17 06:15:48;;;;;;;10.13;4.60;;;8.00;99.90;;;;;;5039400;28;20245;-86
2023/04/17 06:18:16;;;;;;;5.17;4.67;;;8.10;99.90;;;;;;5022648;28;20595;-88
2023/04/17 06:20:45;;;;;;;11.67;5.37;;;8.10;99.90;;;;;;5038151;28;20243;-86
2023/04/17 06:23:11;;;;;;;6.30;5.33;;;8.10;99.90;;;;;;5022404;28;20215;-88
2023/04/17 06:25:36;;;;;;;11.80;5.70;;;8.00;99.90;;;;;;5022604;28;20559;-87
2023/04/17 06:28:02;;;;;;;9.13;5.73;;;8.10;99.90;;;;;;5022791;28;20252;-86
2023/04/17 06:30:28;;;;;;;12.50;6.10;;;8.30;99.90;;;;;;5019725;28;20304;-86
2023/04/17 06:32:54;;;;;;;8.43;5.43;;;8.40;99.90;;;;;;5038101;28;20222;-85
2023/04/17 06:35:20;;;;;;;17.13;8.50;;;8.50;99.90;;;;;;5040446;28;20269;-87
2023/04/17 06:37:46;;;;;;;10.90;5.83;;;8.60;99.90;;;;;;5025115;28;20583;-87
2023/04/17 06:40:12;;;;;;;7.93;6.90;;;8.60;99.90;;;;;;5025451;28;20253;-88
2023/04/17 06:42:37;;;;;;;13.20;7.50;;;8.60;99.90;;;;;;5024564;28;20186;-87
2023/04/17 06:45:04;;;;;;;8.43;6.00;;;8.60;99.90;;;;;;5023108;28;20280;-87
2023/04/17 06:47:30;;;;;;;11.20;5.90;;;8.70;99.90;;;;;;5022627;28;20720;-86
2023/04/17 06:49:58;;;;;;;20.10;7.07;;;8.80;99.90;;;;;;5026034;28;20771;-89
2023/04/17 06:52:25;;;;;;;9.97;7.10;;;8.80;99.90;;;;;;5026395;28;20214;-88
2023/04/17 06:54:55;;;;;;;13.10;7.03;;;8.70;99.90;;;;;;5026907;28;20309;-87
2023/04/17 06:57:21;;;;;;;7.73;5.53;;;8.60;99.90;;;;;;5026878;28;20210;-89
2023/04/17 06:59:47;;;;;;;13.03;6.27;;;8.70;99.90;;;;;;5026521;28;20307;-88
2023/04/17 07:02:13;;;;;;;6.57;5.17;;;8.80;99.90;;;;;;5040760;28;20233;-88
2023/04/17 07:04:39;;;;;;;7.73;5.40;;;8.70;99.90;;;;;;5024619;28;20226;-88
2023/04/17 07:07:04;;;;;;;7.33;5.80;;;8.80;99.90;;;;;;5025216;28;20229;-86
2023/04/17 07:09:30;;;;;;;11.83;6.03;;;8.70;99.90;;;;;;5024713;28;20222;-87
2023/04/17 07:11:57;;;;;;;6.53;5.23;;;8.70;99.90;;;;;;5026812;28;20226;-88
2023/04/17 07:14:22;;;;;;;13.03;5.53;;;8.80;99.90;;;;;;5026602;28;20586;-90
2023/04/17 07:16:48;;;;;;;9.70;6.03;;;8.80;99.90;;;;;;5024846;28;20226;-87
2023/04/17 07:19:15;;;;;;;11.77;5.20;;;8.90;99.90;;;;;;5026190;28;20218;-88
2023/04/17 07:21:40;;;;;;;7.97;4.30;;;8.90;99.90;;;;;;5026502;28;20207;-86
2023/04/17 07:24:06;;;;;;;12.00;6.03;;;9.00;99.90;;;;;;5025203;28;20752;-88
2023/04/17 07:26:32;;;;;;;8.53;5.67;;;8.90;99.90;;;;;;5023797;28;20325;-87
2023/04/17 07:28:58;;;;;;;9.20;6.90;;;8.80;99.90;;;;;;5024702;28;20317;-88
2023/04/17 07:31:23;;;;;;;7.53;4.70;;;8.80;99.90;;;;;;5040606;28;20215;-87
2023/04/17 07:33:49;;;;;;;9.33;6.10;;;8.90;99.90;;;;;;5024550;28;20249;-88
2023/04/17 07:36:15;;;;;;;15.53;6.27;;;8.90;99.90;;;;;;5025674;28;20531;-86
2023/04/17 07:38:41;;;;;;;10.83;6.67;;;9.00;99.90;;;;;;5042207;28;20313;-88
2023/04/17 07:41:07;;;;;;;7.00;6.00;;;8.90;99.90;;;;;;5024915;28;20216;-87
2023/04/17 07:43:32;;;;;;;9.83;5.67;;;8.90;99.90;;;;;;5024165;28;20218;-87
2023/04/17 07:45:58;;;;;;;11.60;6.47;;;9.00;99.90;;;;;;5032518;28;20412;-87
2023/04/17 07:48:26;;;;;;;13.47;6.57;;;9.20;99.90;;;;;;5041064;28;20194;-88
2023/04/17 07:50:52;;;;;;;12.10;7.07;;;9.30;99.90;;;;;;5024581;28;20735;-92
2023/04/17 07:53:18;;;;;;;11.93;5.57;;;9.30;99.90;;;;;;5040353;28;20222;-87
2023/04/17 07:55:47;;;;;;;6.87;5.43;;;9.30;99.90;;;;;;5041234;28;20275;-88
2023/04/17 07:58:15;;;;;;;6.43;4.83;;;9.10;99.90;;;;;;5040720;28;20225;-86
2023/04/17 08:00:40;;;;;;;5.70;5.00;;;9.10;99.90;;;;;;5024729;28;20195;-86
2023/04/17 08:03:06;;;;;;;9.70;4.77;;;9.10;99.90;;;;;;5025158;28;20285;-88
2023/04/17 08:05:32;;;;;;;8.30;4.23;;;9.20;99.90;;;;;;5006835;28;20214;-87
2023/04/17 08:08:00;;;;;;;13.53;5.60;;;9.30;99.90;;;;;;5026255;28;20268;-88
2023/04/17 08:10:27;;;;;;;14.30;6.20;;;9.40;99.90;;;;;;5025270;28;20231;-88
2023/04/17 08:12:53;;;;;;;9.20;6.10;;;9.50;99.90;;;;;;5041714;28;20211;-88
2023/04/17 08:15:20;;;;;;;15.10;8.70;;;9.60;99.90;;;;;;5015083;28;20187;-88
2023/04/17 08:17:45;;;;;;;8.97;6.73;;;9.60;99.90;;;;;;5025061;28;20257;-86
2023/04/17 08:20:12;;;;;;;11.60;7.27;;;9.60;99.90;;;;;;5041343;28;20259;-88
2023/04/17 08:22:42;;;;;;;12.77;8.70;;;9.70;99.90;;;;;;5023090;28;20327;-87
2023/04/17 08:25:08;;;;;;;11.87;7.60;;;9.60;99.90;;;;;;5022810;28;20222;-86
2023/04/17 08:27:39;;;;;;;11.37;6.30;;;9.60;99.90;;;;;;5039657;28;20187;-87
2023/04/17 08:30:07;;;;;;;9.03;7.27;;;9.70;99.90;;;;;;5025542;28;20245;-86
2023/04/17 08:32:44;;;;;;;12.50;6.90;;;9.80;99.90;;;;;;5025749;28;20222;-88
2023/04/17 08:35:12;;;;;;;7.43;3.93;;;9.80;99.90;;;;;;5025017;28;20272;-89
2023/04/17 08:37:38;;;;;;;12.33;5.87;;;9.70;99.90;;;;;;5040796;28;20293;-89
2023/04/17 08:40:08;;;;;;;5.60;4.70;;;9.70;99.90;;;;;;5024543;28;20222;-89
2023/04/17 08:42:38;;;;;;;10.40;5.40;;;9.80;99.90;;;;;;5024911;28;20187;-89
2023/04/17 08:45:06;;;;;;;5.77;4.20;;;9.80;99.90;;;;;;5022562;28;20222;-88
2023/04/17 08:47:35;;;;;;;6.57;4.87;;;9.80;99.90;;;;;;5029849;28;20215;-89
2023/04/17 08:50:08;;;;;;;7.63;4.83;;;9.90;99.90;;;;;;5022106;28;20325;-89
2023/04/17 08:52:41;;;;;;;6.87;5.03;;;9.90;99.90;;;;;;5038672;28;20233;-88
2023/04/17 08:55:09;;;;;;;6.77;4.90;;;9.90;99.90;;;;;;5023154;28;20233;-87
2023/04/17 08:57:51;;;;;;;9.70;5.27;;;9.90;99.90;;;;;;5024044;28;20170;-90
2023/04/17 09:00:27;;;;;;;7.90;4.53;;;9.90;99.90;;;;;;5024503;28;20229;-88
2023/04/17 09:02:54;;;;;;;8.80;5.73;;;10.10;99.90;;;;;;5039116;28;20218;-89
2023/04/17 09:05:21;;;;;;;6.10;4.20;;;10.10;99.90;;;;;;5023733;28;20210;-89
2023/04/17 09:07:49;;;;;;;5.17;4.67;;;10.10;99.90;;;;;;5023585;28;20226;-89
2023/04/17 09:10:15;;;;;;;4.10;3.20;;;10.20;99.90;;;;;;5039387;28;20230;-91
2023/04/17 09:12:58;;;;;;;8.83;5.43;;;10.00;99.90;;;;;;5025587;28;20197;-87
2023/04/17 09:15:24;;;;;;;7.57;4.57;;;10.00;99.90;;;;;;5003472;28;20215;-89
2023/04/17 09:17:50;;;;;;;8.00;5.20;;;10.20;99.90;;;;;;4996519;28;20991;-90
2023/04/17 09:20:16;;;;;;;8.90;5.47;;;10.30;99.90;;;;;;5019370;28;20226;-89
2023/04/17 09:22:42;;;;;;;6.20;5.60;;;10.20;99.90;;;;;;5011691;28;20765;-87
2023/04/17 09:25:18;;;;;;;6.40;5.30;;;10.10;99.90;;;;;;5023642;28;20226;-89
2023/04/17 09:27:45;;;;;;;12.43;5.47;;;10.10;99.90;;;;;;5024315;28;20205;-88
2023/04/17 09:30:12;;;;;;;7.23;5.63;;;10.20;99.90;;;;;;5024614;28;20329;-92
2023/04/17 09:32:39;;;;;;;9.57;5.10;;;10.30;99.90;;;;;;5024669;28;21070;-89
2023/04/17 09:35:06;;;;;;;5.17;4.20;;;10.40;99.90;;;;;;5040322;28;20769;-88
2023/04/17 09:37:52;;;;;;;8.27;4.83;;;10.40;99.90;;;;;;5024862;28;20272;-92
2023/04/17 09:40:19;;;;;;;9.60;4.97;;;10.10;99.90;;;;;;5040179;28;20325;-91
2023/04/17 09:43:05;;;;;;;7.20;4.40;;;10.40;99.90;;;;;;5023449;28;20667;-91
2023/04/17 09:45:35;;;;;;;10.97;4.87;;;10.80;99.90;;;;;;5024521;28;20186;-92
2023/04/17 09:48:06;;;;;;;9.03;5.60;;;11.10;99.90;;;;;;5023842;28;20222;-89
2023/04/17 09:50:33;;;;;;;10.10;5.53;;;11.30;99.90;;;;;;5023404;28;20319;-90
2023/04/17 09:52:59;;;;;;;9.33;4.17;;;11.40;99.90;;;;;;5038815;28;20222;-88
2023/04/17 09:55:28;;;;;;;6.50;4.40;;;11.60;99.90;;;;;;5023069;28;20331;-90
2023/04/17 09:57:56;;;;;;;7.13;5.47;;;12.00;99.90;;;;;;5023901;28;20183;-90
2023/04/17 10:00:26;;;;;;;7.07;4.57;;;12.30;99.90;;;;;;5024542;28;20195;-92
2023/04/17 10:02:53;;;;;;;10.00;5.63;;;12.50;99.90;;;;;;5024018;28;20386;-91
2023/04/17 10:05:20;;;;;;;9.10;5.30;;;12.70;99.90;;;;;;5024634;28;20306;-90
2023/04/17 10:07:46;;;;;;;7.33;5.03;;;12.50;99.90;;;;;;5028503;28;20236;-90
2023/04/17 10:10:21;;;;;;;4.97;3.67;;;12.80;99.90;;;;;;5027289;28;21224;-90
2023/04/17 10:12:48;;;;;;;7.23;5.63;;;12.70;99.90;;;;;;5027676;28;20182;-88
2023/04/17 10:15:15;;;;;;;11.70;6.00;;;12.80;99.90;;;;;;5028068;28;20214;-89
2023/04/17 10:17:41;;;;;;;12.97;6.33;;;12.90;99.90;;;;;;5026180;28;20215;-91
2023/04/17 10:20:22;;;;;;;10.33;5.00;;;12.90;99.90;;;;;;5026747;28;20361;-92
2023/04/17 10:22:55;;;;;;;11.10;6.47;;;12.60;99.90;;;;;;5027103;28;20222;-93
2023/04/17 10:25:25;;;;;;;9.20;5.00;;;12.70;99.90;;;;;;5026864;28;20215;-90
2023/04/17 10:27:59;;;;;;;5.97;3.57;;;12.60;99.90;;;;;;5025421;28;20648;-88
2023/04/17 10:30:54;;;;;;;6.67;5.03;;;12.70;99.90;;;;;;5025535;28;20685;-86
2023/04/17 10:33:24;;;;;;;6.47;5.13;;;13.00;99.90;;;;;;5017867;28;20301;-89
2023/04/17 10:35:50;;;;;;;13.87;5.77;;;13.80;99.90;;;;;;5038792;28;20214;-88
2023/04/17 10:38:30;;;;;;;6.87;5.50;;;14.40;99.90;;;;;;5024639;28;20333;-87
2023/04/17 10:40:55;;;;;;;6.93;4.63;;;14.70;99.90;;;;;;5025078;28;20218;-88
2023/04/17 10:43:22;;;;;;;6.37;4.87;;;14.70;99.90;;;;;;5006215;28;20253;-87
2023/04/17 10:45:53;;;;;;;5.97;5.20;;;14.40;99.90;;;;;;5020974;28;20201;-87
2023/04/17 10:48:51;;;;;;;7.47;5.70;;;14.40;99.90;;;;;;5028876;28;20265;-87
2023/04/17 10:51:22;;;;;;;10.50;5.90;;;14.60;99.90;;;;;;5022880;28;20230;-88
2023/04/17 10:53:50;;;;;;;7.20;5.47;;;14.30;99.90;;;;;;5035470;28;20443;-88
2023/04/17 10:56:25;;;;;;;10.60;6.03;;;14.70;99.90;;;;;;5022221;28;20237;-90
2023/04/17 10:59:01;;;;;;;6.73;5.00;;;15.40;99.90;;;;;;5038941;28;20226;-86
2023/04/17 11:01:36;;;;;;;6.97;5.00;;;15.70;99.90;;;;;;5037920;28;20225;-87
2023/04/17 11:04:03;;;;;;;8.13;5.40;;;16.00;99.90;;;;;;5037203;28;20757;-90
2023/04/17 11:06:39;;;;;;;9.40;4.93;;;16.00;99.90;;;;;;5022769;28;20249;-87
2023/04/17 11:09:09;;;;;;;10.40;6.00;;;16.30;99.90;;;;;;5019542;28;20226;-89
2023/04/17 11:11:40;;;;;;;9.43;5.43;;;16.60;99.90;;;;;;5021846;28;20265;-88
2023/04/17 11:14:11;;;;;;;13.83;6.20;;;16.20;99.90;;;;;;5020417;28;20218;-88
2023/04/17 11:16:38;;;;;;;8.63;5.87;;;15.70;99.90;;;;;;5021844;28;20253;-88
2023/04/17 11:19:05;;;;;;;9.60;5.63;;;15.80;99.90;;;;;;5022023;28;20606;-86
2023/04/17 11:21:31;;;;;;;7.97;5.10;;;16.00;99.90;;;;;;5037185;28;20202;-86
2023/04/17 11:24:01;;;;;;;10.33;5.63;;;15.70;99.90;;;;;;5020556;28;20570;-85
2023/04/17 11:26:27;;;;;;;6.97;4.77;;;15.50;99.90;;;;;;5020793;28;20234;-85
2023/04/17 11:28:52;;;;;;;7.53;6.30;;;15.50;99.90;;;;;;5022503;28;20566;-83
2023/04/17 11:31:18;;;;;;;9.03;5.70;;;15.10;99.90;;;;;;5021452;28;21397;-86
2023/04/17 11:33:46;;;;;;;8.07;5.23;;;15.00;99.90;;;;;;5036056;28;20729;-84
2023/04/17 11:36:12;;;;;;;8.73;4.97;;;15.00;99.90;;;;;;5037552;28;20197;-89
2023/04/17 11:38:46;;;;;;;11.47;5.77;;;14.90;99.90;;;;;;5039202;28;20214;-87
2023/04/17 11:41:12;;;;;;;8.00;4.63;;;15.00;99.90;;;;;;5024674;28;20253;-88
2023/04/17 11:43:38;;;;;;;7.30;4.20;;;15.10;99.90;;;;;;5038896;28;20218;-84
2023/04/17 11:46:04;;;;;;;9.43;5.50;;;14.80;99.90;;;;;;5038681;28;20245;-87
2023/04/17 11:48:33;;;;;;;9.73;5.67;;;15.00;99.90;;;;;;5023541;28;20464;-84
2023/04/17 11:51:02;;;;;;;10.77;6.00;;;14.90;99.90;;;;;;5023559;28;20240;-83
2023/04/17 11:53:29;;;;;;;10.33;6.20;;;15.00;99.90;;;;;;5022364;28;20246;-88
2023/04/17 11:56:15;;;;;;;8.83;5.87;;;14.80;99.90;;;;;;5038661;28;20214;-87
2023/04/17 11:58:48;;;;;;;6.93;5.40;;;14.80;99.90;;;;;;5038887;28;20214;-85
2023/04/17 12:01:14;;;;;;;10.83;6.50;;;14.70;99.90;;;;;;5024372;28;20226;-86
2023/04/17 12:03:43;;;;;;;10.50;5.13;;;14.00;99.90;;;;;;5025183;28;20198;-84
2023/04/17 12:06:10;;;;;;;9.53;5.90;;;14.20;99.90;;;;;;5025089;28;20238;-85
2023/04/17 12:08:49;;;;;;;6.23;5.63;;;14.40;99.90;;;;;;5024052;28;20222;-87
2023/04/17 12:11:44;;;;;;;9.13;5.37;;;14.40;99.90;;;;;;5024113;28;20300;-85
2023/04/17 12:14:10;;;;;;;14.03;7.03;;;14.60;99.90;;;;;;5023920;28;20214;-85
2023/04/17 12:16:36;;;;;;;15.23;6.40;;;14.70;99.90;;;;;;5039187;28;20229;-87
2023/04/17 12:19:02;;;;;;;9.43;6.23;;;14.80;99.90;;;;;;5024244;28;20222;-86
2023/04/17 12:21:28;;;;;;;7.73;5.07;;;14.70;99.90;;;;;;5040011;28;20191;-86
2023/04/17 12:23:54;;;;;;;11.97;6.20;;;14.70;99.90;;;;;;5023129;28;20245;-85
2023/04/17 12:26:20;;;;;;;12.03;5.67;;;14.80;99.90;;;;;;5023376;28;20688;-86
2023/04/17 12:28:45;;;;;;;9.70;6.93;;;14.60;99.90;;;;;;5022517;28;20984;-86
2023/04/17 12:31:11;;;;;;;8.17;5.37;;;14.60;99.90;;;;;;5022855;28;20249;-87
2023/04/17 12:33:37;;;;;;;10.77;6.90;;;14.50;99.90;;;;;;5023220;28;20190;-86
2023/04/17 12:36:05;;;;;;;16.03;6.47;;;14.50;99.90;;;;;;5039684;28;20221;-87
2023/04/17 12:38:31;;;;;;;14.87;6.30;;;14.50;99.90;;;;;;5023082;28;20225;-85
2023/04/17 12:40:57;;;;;;;14.83;6.83;;;14.60;99.90;;;;;;5022697;28;21155;-86
2023/04/17 12:43:23;;;;;;;9.07;5.97;;;14.70;99.90;;;;;;5023987;28;20610;-85
2023/04/17 12:45:49;;;;;;;10.83;6.93;;;14.60;99.90;;;;;;5022841;28;20447;-85
2023/04/17 12:48:15;;;;;;;10.33;6.70;;;14.60;99.90;;;;;;5023256;28;20195;-86
2023/04/17 12:50:42;;;;;;;10.70;7.10;;;14.60;99.90;;;;;;5021823;28;20695;-87
2023/04/17 12:53:11;;;;;;;9.67;6.10;;;14.20;99.90;;;;;;5020993;28;20317;-87